createdAt,value
2018-05-27T00:01:48.196Z,67.30
2018-05-27T00:04:17.102Z,68.00
2018-05-27T00:06:45.537Z,68.10
2018-05-27T00:09:13.552Z,67.90
2018-05-27T00:11:41.307Z,68.10
2018-05-27T00:14:09.069Z,67.90
2018-05-27T00:16:36.734Z,67.60
2018-05-27T00:19:04.506Z,68.10
2018-05-27T00:21:32.149Z,67.90
2018-05-27T00:24:00.225Z,68.80
2018-05-27T00:26:28.294Z,70.10
2018-05-27T00:28:57.095Z,71.20
2018-05-27T00:31:24.895Z,70.80
2018-05-27T00:33:52.719Z,70.60
2018-05-27T00:36:20.584Z,70.10
2018-05-27T00:38:48.246Z,69.40
2018-05-27T00:41:16.422Z,69.60
2018-05-27T00:43:44.021Z,69.80
2018-05-27T00:46:13.329Z,70.10
2018-05-27T00:51:10.133Z,69.40
2018-05-27T00:53:50.186Z,69.50
2018-05-27T00:56:18.661Z,69.50
2018-05-27T00:58:46.421Z,69.90
2018-05-27T01:01:14.193Z,69.60
2018-05-27T01:03:42.254Z,69.20
2018-05-27T01:06:10.433Z,69.40
2018-05-27T01:08:38.097Z,69.50
2018-05-27T01:11:06.265Z,69.60
2018-05-27T01:13:34.437Z,70.00
2018-05-27T01:16:02.198Z,69.70
2018-05-27T01:18:30.275Z,70.50
2018-05-27T01:20:58.438Z,71.00
2018-05-27T01:23:26.314Z,70.90
2018-05-27T01:25:55.510Z,70.70
2018-05-27T01:28:23.163Z,71.10
2018-05-27T01:30:50.768Z,70.70
2018-05-27T01:33:19.155Z,71.30
2018-05-27T01:35:48.407Z,70.40
2018-05-27T01:38:16.169Z,70.30
2018-05-27T01:40:44.243Z,71.00
2018-05-27T01:43:12.415Z,71.60
2018-05-27T01:45:40.197Z,71.50
2018-05-27T01:48:08.657Z,72.10
2018-05-27T01:50:36.417Z,71.80
2018-05-27T01:53:05.206Z,72.00
2018-05-27T01:55:32.973Z,71.90
2018-05-27T01:58:00.626Z,71.60
2018-05-27T02:00:28.290Z,71.80
2018-05-27T02:02:56.666Z,72.50
2018-05-27T02:05:24.444Z,72.90
2018-05-27T02:07:52.094Z,74.00
2018-05-27T02:10:20.275Z,74.80
2018-05-27T02:12:48.444Z,75.20
2018-05-27T02:15:16.102Z,74.50
2018-05-27T02:17:44.486Z,74.40
2018-05-27T02:20:12.547Z,74.40
2018-05-27T02:22:40.207Z,74.60
2018-05-27T02:25:09.001Z,75.50
2018-05-27T02:27:36.764Z,74.40
2018-05-27T02:30:04.525Z,74.10
2018-05-27T02:32:32.187Z,73.70
2018-05-27T02:35:00.256Z,73.00
2018-05-27T02:37:28.322Z,73.00
2018-05-27T02:39:57.329Z,73.00
2018-05-27T02:42:24.987Z,72.60
2018-05-27T02:44:52.752Z,72.90
2018-05-27T02:47:20.614Z,73.00
2018-05-27T02:49:48.268Z,73.40
2018-05-27T02:52:16.453Z,72.60
2018-05-27T02:54:45.333Z,73.00
2018-05-27T02:57:13.098Z,73.10
2018-05-27T02:59:42.299Z,73.00
2018-05-27T03:02:10.365Z,73.10
2018-05-27T03:04:38.023Z,73.80
2018-05-27T03:07:06.503Z,74.60
2018-05-27T03:09:34.272Z,74.30
2018-05-27T03:12:02.549Z,74.10
2018-05-27T03:17:00.013Z,74.50
2018-05-27T03:19:28.602Z,74.50
2018-05-27T03:21:56.259Z,74.70
2018-05-27T03:24:24.443Z,74.90
2018-05-27T03:26:52.103Z,74.80
2018-05-27T03:29:20.171Z,74.80
2018-05-27T03:31:48.233Z,74.80
2018-05-27T03:34:17.022Z,75.60
2018-05-27T03:39:14.596Z,75.10
2018-05-27T03:41:42.253Z,74.70
2018-05-27T03:44:10.325Z,74.70
2018-05-27T03:46:39.222Z,76.10
2018-05-27T03:49:06.989Z,75.50
2018-05-27T03:51:35.166Z,76.30
2018-05-27T03:54:02.814Z,76.90
2018-05-27T03:56:30.483Z,76.30
2018-05-27T03:58:58.246Z,76.10
2018-05-27T04:01:26.822Z,76.60
2018-05-27T04:04:06.368Z,76.30
2018-05-27T04:06:55.750Z,77.20
2018-05-27T04:09:24.221Z,76.50
2018-05-27T04:11:52.397Z,77.90
2018-05-27T04:14:20.053Z,77.40
2018-05-27T04:16:48.221Z,77.50
2018-05-27T04:19:16.399Z,77.60
2018-05-27T04:21:44.899Z,77.90
2018-05-27T04:24:12.534Z,77.70
2018-05-27T04:26:40.299Z,77.60
2018-05-27T04:29:08.480Z,77.40
2018-05-27T04:31:36.130Z,77.70
2018-05-27T04:34:04.309Z,77.40
2018-05-27T04:36:32.528Z,77.80
2018-05-27T04:39:00.250Z,77.70
2018-05-27T04:41:28.419Z,77.50
2018-05-27T04:43:56.186Z,77.70
2018-05-27T04:46:24.362Z,77.40
2018-05-27T04:48:52.534Z,77.40
2018-05-27T04:51:20.278Z,77.40
2018-05-27T04:53:48.664Z,77.30
2018-05-27T04:56:16.332Z,77.30
2018-05-27T04:58:44.504Z,77.60
2018-05-27T05:01:12.747Z,77.70
2018-05-27T05:03:40.448Z,77.40
2018-05-27T05:06:08.206Z,77.30
2018-05-27T05:08:36.378Z,77.40
2018-05-27T05:11:04.035Z,77.00
2018-05-27T05:13:32.624Z,77.00
2018-05-27T05:16:00.384Z,76.60
2018-05-27T05:18:28.042Z,76.60
2018-05-27T05:20:56.526Z,76.70
2018-05-27T05:23:24.289Z,76.60
2018-05-27T05:25:52.464Z,76.30
2018-05-27T05:28:20.329Z,76.00
2018-05-27T05:30:48.503Z,75.70
2018-05-27T05:33:16.165Z,75.80
2018-05-27T05:35:44.419Z,75.60
2018-05-27T05:38:12.504Z,75.60
2018-05-27T05:40:40.165Z,75.50
2018-05-27T05:45:36.940Z,75.70
2018-05-27T05:48:04.996Z,76.10
2018-05-27T05:50:32.753Z,76.20
2018-05-27T05:53:00.628Z,75.70
2018-05-27T05:55:28.297Z,75.10
2018-05-27T05:57:56.479Z,75.00
2018-05-27T06:00:24.129Z,74.90
2018-05-27T06:02:52.397Z,74.30
2018-05-27T06:05:20.172Z,74.10
2018-05-27T06:07:48.287Z,74.30
2018-05-27T06:10:16.324Z,74.30
2018-05-27T06:12:44.483Z,74.10
2018-05-27T06:15:12.356Z,74.10
2018-05-27T06:17:40.540Z,73.40
2018-05-27T06:22:38.519Z,73.70
2018-05-27T06:25:06.280Z,72.80
2018-05-27T06:27:34.439Z,72.70
2018-05-27T06:30:03.029Z,72.70
2018-05-27T06:32:30.772Z,72.70
2018-05-27T06:34:58.438Z,72.00
2018-05-27T06:37:26.793Z,72.20
2018-05-27T06:39:55.406Z,72.30
2018-05-27T06:42:23.186Z,71.50
2018-05-27T06:44:51.865Z,71.30
2018-05-27T06:47:20.540Z,71.20
2018-05-27T06:49:48.317Z,71.00
2018-05-27T06:52:16.374Z,71.40
2018-05-27T06:54:44.955Z,70.60
2018-05-27T06:57:12.826Z,70.90
2018-05-27T06:59:40.595Z,70.20
2018-05-27T07:02:08.354Z,69.30
2018-05-27T07:04:36.576Z,69.70
2018-05-27T07:07:05.221Z,70.00
2018-05-27T07:09:33.078Z,69.50
2018-05-27T07:12:00.935Z,69.50
2018-05-27T07:14:28.573Z,69.30
2018-05-27T07:16:56.363Z,68.70
2018-05-27T07:19:25.483Z,67.80
2018-05-27T07:21:54.466Z,67.90
2018-05-27T07:24:22.530Z,68.40
2018-05-27T07:26:50.295Z,67.70
2018-05-27T07:29:18.472Z,67.10
2018-05-27T07:31:46.647Z,66.00
2018-05-27T07:34:14.422Z,65.50
2018-05-27T07:36:42.467Z,65.50
2018-05-27T07:39:10.748Z,65.10
2018-05-27T07:41:38.503Z,65.60
2018-05-27T07:44:06.791Z,65.30
2018-05-27T07:49:04.466Z,63.90
2018-05-27T07:51:32.532Z,63.20
2018-05-27T07:54:00.290Z,63.90
2018-05-27T07:56:28.574Z,63.50
2018-05-27T07:58:56.319Z,62.60
2018-05-27T08:01:24.498Z,61.10
2018-05-27T08:03:52.669Z,61.30
2018-05-27T08:06:20.446Z,60.40
2018-05-27T08:08:48.510Z,59.90
2018-05-27T08:11:16.784Z,59.30
2018-05-27T08:13:44.949Z,58.40
2018-05-27T08:16:12.624Z,59.00
2018-05-27T08:18:40.383Z,55.40
2018-05-27T08:21:08.458Z,54.40
2018-05-27T08:23:37.350Z,55.40
2018-05-27T08:26:05.106Z,55.30
2018-05-27T08:28:32.983Z,54.90
2018-05-27T08:31:00.572Z,54.80
2018-05-27T08:33:29.427Z,52.80
2018-05-27T08:35:59.144Z,52.90
2018-05-27T08:38:27.191Z,54.30
2018-05-27T08:40:55.885Z,53.30
2018-05-27T08:43:25.237Z,52.30
2018-05-27T08:45:53.781Z,52.60
2018-05-27T08:48:22.757Z,50.30
2018-05-27T08:50:51.348Z,51.50
2018-05-27T08:53:19.116Z,51.30
2018-05-27T08:55:48.308Z,50.90
2018-05-27T08:58:16.575Z,50.40
2018-05-27T09:00:45.083Z,50.30
2018-05-27T09:03:12.824Z,51.00
2018-05-27T09:05:41.111Z,50.30
2018-05-27T09:08:08.966Z,52.30
2018-05-27T09:10:36.624Z,50.70
2018-05-27T09:13:04.391Z,49.00
2018-05-27T09:18:01.034Z,51.70
2018-05-27T09:20:28.807Z,49.70
2018-05-27T09:22:56.461Z,49.80
2018-05-27T09:25:24.525Z,47.70
2018-05-27T09:27:52.329Z,48.90
2018-05-27T09:30:20.791Z,46.90
2018-05-27T09:32:48.440Z,48.60
2018-05-27T09:35:17.245Z,47.80
2018-05-27T09:37:45.393Z,48.40
2018-05-27T09:40:14.102Z,47.30
2018-05-27T09:42:43.299Z,45.50
2018-05-27T09:45:11.129Z,47.10
2018-05-27T09:47:38.743Z,47.50
2018-05-27T09:50:07.398Z,47.60
2018-05-27T09:52:36.183Z,44.30
2018-05-27T09:55:04.375Z,42.60
2018-05-27T09:57:32.522Z,44.10
2018-05-27T10:00:00.719Z,44.00
2018-05-27T10:02:30.415Z,43.40
2018-05-27T10:04:58.603Z,43.20
2018-05-27T10:07:26.757Z,41.50
2018-05-27T10:09:54.628Z,43.20
2018-05-27T10:12:22.792Z,39.60
2018-05-27T10:14:50.682Z,43.00
2018-05-27T10:17:18.433Z,43.80
2018-05-27T10:19:46.601Z,46.00
2018-05-27T10:22:14.409Z,44.40
2018-05-27T10:24:42.541Z,43.90
2018-05-27T10:27:10.811Z,44.60
2018-05-27T10:29:38.576Z,45.00
2018-05-27T10:32:07.461Z,42.30
2018-05-27T10:34:35.239Z,44.30
2018-05-27T10:37:02.991Z,43.80
2018-05-27T10:39:30.853Z,43.70
2018-05-27T10:41:58.775Z,44.80
2018-05-27T10:44:26.597Z,43.60
2018-05-27T10:46:54.557Z,42.40
2018-05-27T10:49:22.361Z,44.30
2018-05-27T10:51:50.704Z,42.50
2018-05-27T10:54:19.006Z,41.90
2018-05-27T10:56:48.271Z,41.60
2018-05-27T10:59:16.451Z,41.30
2018-05-27T11:01:44.719Z,42.20
2018-05-27T11:04:12.473Z,39.40
2018-05-27T11:06:40.971Z,40.30
2018-05-27T11:09:09.965Z,39.70
2018-05-27T11:11:39.274Z,39.50
2018-05-27T11:14:07.434Z,40.80
2018-05-27T11:16:36.285Z,41.10
2018-05-27T11:19:04.599Z,40.80
2018-05-27T11:21:32.245Z,39.60
2018-05-27T11:24:00.440Z,40.10
2018-05-27T11:26:28.592Z,40.60
2018-05-27T11:28:56.476Z,40.00
2018-05-27T11:31:24.330Z,40.00
2018-05-27T11:33:52.509Z,39.40
2018-05-27T11:36:20.279Z,37.80
2018-05-27T11:38:48.643Z,37.10
2018-05-27T11:41:16.425Z,38.90
2018-05-27T11:43:44.628Z,39.00
2018-05-27T11:46:13.089Z,41.40
2018-05-27T11:48:40.759Z,37.40
2018-05-27T11:51:09.226Z,37.60
2018-05-27T11:53:37.103Z,37.00
2018-05-27T11:56:04.877Z,37.00
2018-05-27T11:58:33.433Z,38.50
2018-05-27T12:01:01.287Z,38.30
2018-05-27T12:03:29.255Z,38.10
2018-05-27T12:05:56.917Z,37.60
2018-05-27T12:08:24.683Z,37.90
2018-05-27T12:10:52.547Z,36.30
2018-05-27T12:13:20.605Z,34.60
2018-05-27T12:15:48.273Z,37.00
2018-05-27T12:18:16.471Z,38.10
2018-05-27T12:20:44.829Z,33.60
2018-05-27T12:23:12.678Z,33.60
2018-05-27T12:25:41.284Z,35.70
2018-05-27T12:28:09.053Z,34.40
2018-05-27T12:30:36.908Z,34.70
2018-05-27T12:33:04.679Z,34.90
2018-05-27T12:35:32.532Z,36.70
2018-05-27T12:38:00.728Z,35.20
2018-05-27T12:40:28.466Z,35.70
2018-05-27T12:42:57.065Z,35.50
2018-05-27T12:45:24.928Z,35.90
2018-05-27T12:47:52.692Z,35.60
2018-05-27T12:50:20.652Z,34.10
2018-05-27T12:52:48.312Z,34.50
2018-05-27T12:55:16.481Z,35.50
2018-05-27T12:57:44.677Z,32.60
2018-05-27T13:02:42.545Z,34.40
2018-05-27T13:05:10.824Z,36.40
2018-05-27T13:07:38.479Z,35.60
2018-05-27T13:10:06.539Z,34.20
2018-05-27T13:12:34.825Z,33.40
2018-05-27T13:15:02.690Z,34.80
2018-05-27T13:17:30.558Z,32.40
2018-05-27T13:19:58.743Z,33.20
2018-05-27T13:22:26.638Z,33.20
2018-05-27T13:24:55.177Z,33.20
2018-05-27T13:27:23.554Z,33.90
2018-05-27T13:29:51.420Z,34.90
2018-05-27T13:32:19.201Z,33.70
2018-05-27T13:34:47.049Z,32.50
2018-05-27T13:37:14.826Z,32.50
2018-05-27T13:39:42.717Z,32.40
2018-05-27T13:42:11.168Z,34.40
2018-05-27T13:44:38.911Z,34.10
2018-05-27T13:47:06.787Z,33.80
2018-05-27T13:49:35.265Z,32.00
2018-05-27T13:52:02.932Z,33.00
2018-05-27T13:54:30.708Z,33.70
2018-05-27T13:56:58.476Z,32.40
2018-05-27T13:59:26.515Z,32.20
2018-05-27T14:01:54.706Z,32.10
2018-05-27T14:04:22.571Z,31.90
2018-05-27T14:06:50.729Z,32.50
2018-05-27T14:09:18.408Z,33.20
2018-05-27T14:11:47.093Z,32.60
2018-05-27T14:14:14.768Z,32.20
2018-05-27T14:16:42.712Z,32.30
2018-05-27T14:19:10.490Z,33.30
2018-05-27T14:21:38.641Z,32.70
2018-05-27T14:24:06.427Z,33.30
2018-05-27T14:26:34.476Z,31.20
2018-05-27T14:29:02.671Z,31.70
2018-05-27T14:31:30.544Z,32.30
2018-05-27T14:33:58.590Z,32.10
2018-05-27T14:36:26.671Z,32.30
2018-05-27T14:38:54.446Z,31.50
2018-05-27T14:41:22.621Z,31.20
2018-05-27T14:43:50.981Z,30.70
2018-05-27T14:46:18.643Z,31.40
2018-05-27T14:48:46.523Z,30.90
2018-05-27T14:51:14.669Z,30.30
2018-05-27T14:53:42.548Z,32.50
2018-05-27T14:56:10.755Z,31.70
2018-05-27T14:58:39.410Z,31.00
2018-05-27T15:01:08.302Z,31.30
2018-05-27T15:03:36.362Z,30.70
2018-05-27T15:06:04.489Z,30.00
2018-05-27T15:08:32.723Z,30.00
2018-05-27T15:11:00.372Z,30.00
2018-05-27T15:13:28.652Z,29.40
2018-05-27T15:15:58.162Z,29.20
2018-05-27T15:18:26.703Z,29.10
2018-05-27T15:20:54.611Z,28.90
2018-05-27T15:23:22.881Z,29.10
2018-05-27T15:25:50.751Z,28.60
2018-05-27T15:28:18.394Z,28.10
2018-05-27T15:33:17.539Z,28.10
2018-05-27T15:35:45.157Z,28.50
2018-05-27T15:38:13.793Z,28.90
2018-05-27T15:40:43.472Z,28.90
2018-05-27T15:43:11.878Z,29.40
2018-05-27T15:45:40.325Z,29.70
2018-05-27T15:50:36.967Z,30.70
2018-05-27T15:53:04.757Z,30.70
2018-05-27T15:55:32.621Z,31.30
2018-05-27T16:00:29.476Z,32.20
2018-05-27T16:02:58.557Z,32.00
2018-05-27T16:05:26.769Z,31.80
2018-05-27T16:07:55.315Z,32.90
2018-05-27T16:10:23.188Z,32.80
2018-05-27T16:12:50.936Z,33.60
2018-05-27T16:15:18.746Z,33.90
2018-05-27T16:20:16.799Z,32.50
2018-05-27T16:22:44.462Z,34.10
2018-05-27T16:25:12.626Z,35.00
2018-05-27T16:27:40.804Z,33.70
2018-05-27T16:30:09.000Z,34.20
2018-05-27T16:32:37.426Z,34.20
2018-05-27T16:35:05.805Z,34.90
2018-05-27T16:37:34.318Z,34.20
2018-05-27T16:40:02.907Z,35.10
2018-05-27T16:42:30.558Z,36.30
2018-05-27T16:44:58.841Z,35.30
2018-05-27T16:47:26.497Z,34.70
2018-05-27T16:49:55.482Z,34.50
2018-05-27T16:52:23.146Z,36.40
2018-05-27T16:57:20.431Z,36.30
2018-05-27T16:59:48.491Z,35.90
2018-05-27T17:02:17.269Z,35.80
2018-05-27T17:04:44.938Z,36.30
2018-05-27T17:07:12.706Z,35.40
2018-05-27T17:09:40.479Z,36.00
2018-05-27T17:12:08.640Z,35.40
2018-05-27T17:14:36.630Z,36.20
2018-05-27T17:17:04.773Z,36.80
2018-05-27T17:22:01.632Z,37.20
2018-05-27T17:24:30.120Z,37.90
2018-05-27T17:26:58.629Z,36.50
2018-05-27T17:29:26.811Z,35.90
2018-05-27T17:31:54.959Z,36.10
2018-05-27T17:34:22.732Z,36.70
2018-05-27T17:39:20.688Z,35.90
2018-05-27T17:41:49.397Z,35.90
2018-05-27T17:44:18.570Z,36.20
2018-05-27T17:49:15.218Z,37.00
2018-05-27T17:51:42.894Z,38.30
2018-05-27T17:54:10.661Z,37.30
2018-05-27T17:56:38.831Z,36.50
2018-05-27T17:59:06.478Z,37.80
2018-05-27T18:01:34.667Z,36.90
2018-05-27T18:04:02.837Z,37.20
2018-05-27T18:06:30.696Z,37.90
2018-05-27T18:08:58.453Z,37.80
2018-05-27T18:11:26.548Z,37.30
2018-05-27T18:13:54.710Z,38.10
2018-05-27T18:16:22.572Z,37.90
2018-05-27T18:18:50.851Z,38.00
2018-05-27T18:21:19.427Z,38.10
2018-05-27T18:23:48.471Z,40.30
2018-05-27T18:26:16.696Z,40.60
2018-05-27T18:28:44.345Z,41.60
2018-05-27T18:31:12.954Z,40.20
2018-05-27T18:33:40.699Z,42.20
2018-05-27T18:36:08.370Z,41.60
2018-05-27T18:38:36.877Z,41.30
2018-05-27T18:41:05.322Z,42.10
2018-05-27T18:43:33.140Z,43.10
2018-05-27T18:46:02.609Z,41.50
2018-05-27T18:48:30.781Z,42.30
2018-05-27T18:50:58.946Z,42.80
2018-05-27T18:53:26.764Z,44.60
2018-05-27T18:55:54.579Z,43.40
2018-05-27T18:58:23.167Z,42.50
2018-05-27T19:00:51.035Z,44.80
2018-05-27T19:03:18.988Z,45.30
2018-05-27T19:05:47.457Z,43.80
2018-05-27T19:08:15.234Z,45.70
2018-05-27T19:10:43.205Z,45.40
2018-05-27T19:13:11.072Z,45.30
2018-05-27T19:15:40.580Z,44.10
2018-05-27T19:18:08.752Z,44.40
2018-05-27T19:20:36.591Z,46.30
2018-05-27T19:23:04.913Z,45.80
2018-05-27T19:25:33.461Z,46.70
2018-05-27T19:28:02.865Z,45.50
2018-05-27T19:30:30.746Z,47.20
2018-05-27T19:32:58.607Z,46.70
2018-05-27T19:35:26.785Z,46.60
2018-05-27T19:37:54.633Z,47.70
2018-05-27T19:40:22.913Z,47.40
2018-05-27T19:42:50.701Z,49.70
2018-05-27T19:45:18.874Z,48.00
2018-05-27T19:47:46.641Z,49.90
2018-05-27T19:50:14.794Z,49.20
2018-05-27T19:52:43.474Z,47.80
2018-05-27T19:55:11.335Z,51.00
2018-05-27T19:57:39.394Z,51.50
2018-05-27T20:00:07.265Z,51.80
2018-05-27T20:02:34.932Z,51.50
2018-05-27T20:05:02.648Z,51.70
2018-05-27T20:07:32.627Z,49.60
2018-05-27T20:10:00.801Z,49.80
2018-05-27T20:12:28.766Z,51.20
2018-05-27T20:14:57.231Z,51.60
2018-05-27T20:17:26.756Z,50.10
2018-05-27T20:19:54.607Z,51.90
2018-05-27T20:22:22.783Z,51.20
2018-05-27T20:24:52.997Z,52.20
2018-05-27T20:27:21.622Z,51.60
2018-05-27T20:29:49.652Z,53.00
2018-05-27T20:32:17.394Z,54.70
2018-05-27T20:34:45.075Z,55.10
2018-05-27T20:37:14.555Z,55.20
2018-05-27T20:39:42.855Z,52.20
2018-05-27T20:42:10.721Z,54.70
2018-05-27T20:44:38.591Z,54.00
2018-05-27T20:47:07.583Z,52.80
2018-05-27T20:49:35.362Z,56.40
2018-05-27T20:52:02.999Z,54.60
2018-05-27T20:54:31.482Z,53.30
2018-05-27T20:56:59.078Z,57.10
2018-05-27T20:59:27.630Z,54.30
2018-05-27T21:01:55.494Z,57.90
2018-05-27T21:04:23.154Z,58.10
2018-05-27T21:06:50.931Z,58.40
2018-05-27T21:09:18.568Z,58.50
2018-05-27T21:11:46.652Z,54.90
2018-05-27T21:14:14.842Z,55.50
2018-05-27T21:16:43.013Z,55.20
2018-05-27T21:21:41.394Z,55.80
2018-05-27T21:24:09.062Z,59.60
2018-05-27T21:26:37.234Z,57.20
2018-05-27T21:29:04.995Z,60.20
2018-05-27T21:31:32.950Z,60.30
2018-05-27T21:34:01.434Z,56.60
2018-05-27T21:36:30.842Z,57.10
2018-05-27T21:38:59.520Z,57.10
2018-05-27T21:41:27.174Z,61.40
2018-05-27T21:43:54.951Z,61.90
2018-05-27T21:48:52.517Z,57.80
2018-05-27T21:51:20.704Z,57.70
2018-05-27T21:53:48.869Z,59.20
2018-05-27T21:56:17.145Z,58.50
2018-05-27T21:58:44.941Z,63.30
2018-05-27T22:01:13.387Z,59.00
2018-05-27T22:06:10.681Z,58.80
2018-05-27T22:08:39.240Z,58.80
2018-05-27T22:11:07.015Z,64.30
2018-05-27T22:13:35.685Z,60.10
2018-05-27T22:16:03.537Z,61.60
2018-05-27T22:18:31.209Z,64.70
2018-05-27T22:20:59.083Z,64.40
2018-05-27T22:23:27.243Z,58.80
2018-05-27T22:25:55.326Z,58.80
2018-05-27T22:28:23.604Z,59.90
2018-05-27T22:30:51.265Z,63.40
2018-05-27T22:33:19.431Z,58.60
2018-05-27T22:35:47.704Z,59.70
2018-05-27T22:38:15.463Z,63.60
2018-05-27T22:40:43.244Z,64.00
2018-05-27T22:43:10.995Z,63.80
2018-05-27T22:45:38.858Z,64.40
2018-05-27T22:48:06.513Z,63.30
2018-05-27T22:50:34.692Z,59.30
2018-05-27T22:53:02.755Z,59.80
2018-05-27T22:55:30.417Z,61.20
2018-05-27T22:57:58.599Z,58.70
2018-05-27T23:00:26.665Z,58.80
2018-05-27T23:02:55.145Z,58.90
2018-05-27T23:05:22.915Z,63.60
2018-05-27T23:07:50.565Z,63.20
2018-05-27T23:12:47.233Z,64.60
2018-05-27T23:15:14.991Z,65.20
2018-05-27T23:17:43.776Z,64.80
2018-05-27T23:20:11.543Z,65.10
2018-05-27T23:22:40.538Z,59.20
2018-05-27T23:25:08.705Z,59.30
2018-05-27T23:27:36.768Z,60.50
2018-05-27T23:30:04.533Z,62.20
2018-05-27T23:32:33.224Z,59.90
2018-05-27T23:35:00.986Z,65.70
2018-05-27T23:37:28.854Z,65.80
2018-05-27T23:42:26.425Z,59.50
2018-05-27T23:44:54.597Z,59.50
2018-05-27T23:47:22.774Z,60.50
2018-05-27T23:49:50.438Z,62.80
2018-05-27T23:52:18.498Z,60.30
2018-05-27T23:54:46.675Z,60.80
2018-05-27T23:57:14.854Z,62.20
2018-05-27T23:59:42.893Z,62.70
